sensor_id;sensor_type;location;lat;lon;timestamp;temperature;humidity
15947;DHT22;8072;52.554;7.966;2023-02-28T00:02:18;1.80;99.90
15947;DHT22;8072;52.554;7.966;2023-02-28T00:04:45;1.80;99.90
15947;DHT22;8072;52.554;7.966;2023-02-28T00:07:18;1.80;99.90
15947;DHT22;8072;52.554;7.966;2023-02-28T00:09:44;1.80;99.90
15947;DHT22;8072;52.554;7.966;2023-02-28T00:12:10;1.90;99.90
15947;DHT22;8072;52.554;7.966;2023-02-28T00:14:36;1.80;99.90
15947;DHT22;8072;52.554;7.966;2023-02-28T00:17:02;1.80;99.90
15947;DHT22;8072;52.554;7.966;2023-02-28T00:19:28;1.80;99.90
15947;DHT22;8072;52.554;7.966;2023-02-28T00:21:53;1.80;99.90
15947;DHT22;8072;52.554;7.966;2023-02-28T00:24:19;1.80;99.90
15947;DHT22;8072;52.554;7.966;2023-02-28T00:26:45;1.80;99.90
15947;DHT22;8072;52.554;7.966;2023-02-28T00:29:12;1.80;99.90
15947;DHT22;8072;52.554;7.966;2023-02-28T00:31:37;1.80;99.90
15947;DHT22;8072;52.554;7.966;2023-02-28T00:34:03;1.80;99.90
15947;DHT22;8072;52.554;7.966;2023-02-28T00:36:29;1.80;99.90
15947;DHT22;8072;52.554;7.966;2023-02-28T00:38:54;1.90;99.90
15947;DHT22;8072;52.554;7.966;2023-02-28T00:41:20;1.90;99.90
15947;DHT22;8072;52.554;7.966;2023-02-28T00:43:46;1.90;99.90
15947;DHT22;8072;52.554;7.966;2023-02-28T00:46:11;1.90;99.90
15947;DHT22;8072;52.554;7.966;2023-02-28T00:48:37;1.90;99.90
15947;DHT22;8072;52.554;7.966;2023-02-28T00:51:03;1.90;99.90
15947;DHT22;8072;52.554;7.966;2023-02-28T00:53:29;1.90;99.90
15947;DHT22;8072;52.554;7.966;2023-02-28T00:55:55;1.90;99.90
15947;DHT22;8072;52.554;7.966;2023-02-28T00:58:21;1.90;99.90
15947;DHT22;8072;52.554;7.966;2023-02-28T01:00:47;1.90;99.90
15947;DHT22;8072;52.554;7.966;2023-02-28T01:03:19;1.90;99.90
15947;DHT22;8072;52.554;7.966;2023-02-28T01:05:46;1.90;99.90
15947;DHT22;8072;52.554;7.966;2023-02-28T01:08:12;1.90;99.90
15947;DHT22;8072;52.554;7.966;2023-02-28T01:10:39;1.90;99.90
15947;DHT22;8072;52.554;7.966;2023-02-28T01:13:05;1.90;99.90
15947;DHT22;8072;52.554;7.966;2023-02-28T01:15:31;1.90;99.90
15947;DHT22;8072;52.554;7.966;2023-02-28T01:17:57;1.90;99.90
15947;DHT22;8072;52.554;7.966;2023-02-28T01:20:23;1.90;99.90
15947;DHT22;8072;52.554;7.966;2023-02-28T01:22:49;1.90;99.90
15947;DHT22;8072;52.554;7.966;2023-02-28T01:25:15;1.90;99.90
15947;DHT22;8072;52.554;7.966;2023-02-28T01:27:41;1.90;99.90
15947;DHT22;8072;52.554;7.966;2023-02-28T01:30:08;1.90;99.90
15947;DHT22;8072;52.554;7.966;2023-02-28T01:32:36;1.90;99.90
15947;DHT22;8072;52.554;7.966;2023-02-28T01:35:01;1.90;99.90
15947;DHT22;8072;52.554;7.966;2023-02-28T01:37:27;1.90;99.90
15947;DHT22;8072;52.554;7.966;2023-02-28T01:39:53;1.90;99.90
15947;DHT22;8072;52.554;7.966;2023-02-28T01:42:19;1.90;99.90
15947;DHT22;8072;52.554;7.966;2023-02-28T01:47:45;1.90;99.90
15947;DHT22;8072;52.554;7.966;2023-02-28T01:50:19;1.90;99.90
15947;DHT22;8072;52.554;7.966;2023-02-28T01:52:47;1.90;99.90
15947;DHT22;8072;52.554;7.966;2023-02-28T01:55:15;1.90;99.90
15947;DHT22;8072;52.554;7.966;2023-02-28T01:57:49;1.90;99.90
15947;DHT22;8072;52.554;7.966;2023-02-28T02:00:19;1.90;99.90
15947;DHT22;8072;52.554;7.966;2023-02-28T02:02:48;1.90;99.90
15947;DHT22;8072;52.554;7.966;2023-02-28T02:05:21;1.90;99.90
15947;DHT22;8072;52.554;7.966;2023-02-28T02:07:52;1.90;99.90
15947;DHT22;8072;52.554;7.966;2023-02-28T02:40:38;1.80;99.90
15947;DHT22;8072;52.554;7.966;2023-02-28T02:43:18;1.80;99.90
15947;DHT22;8072;52.554;7.966;2023-02-28T02:46:09;1.70;99.90
15947;DHT22;8072;52.554;7.966;2023-02-28T02:48:38;1.70;99.90
15947;DHT22;8072;52.554;7.966;2023-02-28T02:51:10;1.60;99.90
15947;DHT22;8072;52.554;7.966;2023-02-28T02:53:46;1.60;99.90
15947;DHT22;8072;52.554;7.966;2023-02-28T02:56:16;1.60;99.90
15947;DHT22;8072;52.554;7.966;2023-02-28T02:58:44;1.60;99.90
15947;DHT22;8072;52.554;7.966;2023-02-28T03:01:21;1.60;99.90
15947;DHT22;8072;52.554;7.966;2023-02-28T03:03:56;1.70;99.90
15947;DHT22;8072;52.554;7.966;2023-02-28T03:06:22;1.60;99.90
15947;DHT22;8072;52.554;7.966;2023-02-28T03:08:48;1.70;99.90
15947;DHT22;8072;52.554;7.966;2023-02-28T03:11:15;1.70;99.90
15947;DHT22;8072;52.554;7.966;2023-02-28T03:27:34;1.60;99.90
15947;DHT22;8072;52.554;7.966;2023-02-28T03:30:14;1.60;99.90
15947;DHT22;8072;52.554;7.966;2023-02-28T03:33:00;1.60;99.90
15947;DHT22;8072;52.554;7.966;2023-02-28T03:35:32;1.60;99.90
15947;DHT22;8072;52.554;7.966;2023-02-28T03:38:05;1.60;99.90
15947;DHT22;8072;52.554;7.966;2023-02-28T03:40:35;1.60;99.90
15947;DHT22;8072;52.554;7.966;2023-02-28T03:43:07;1.50;99.90
15947;DHT22;8072;52.554;7.966;2023-02-28T03:45:37;1.50;99.90
15947;DHT22;8072;52.554;7.966;2023-02-28T03:48:27;1.50;99.90
15947;DHT22;8072;52.554;7.966;2023-02-28T03:50:58;1.40;99.90
15947;DHT22;8072;52.554;7.966;2023-02-28T03:53:32;1.40;99.90
15947;DHT22;8072;52.554;7.966;2023-02-28T03:56:24;1.40;99.90
15947;DHT22;8072;52.554;7.966;2023-02-28T04:01:50;1.30;99.90
15947;DHT22;8072;52.554;7.966;2023-02-28T04:04:17;1.20;99.90
15947;DHT22;8072;52.554;7.966;2023-02-28T04:06:44;1.20;99.90
15947;DHT22;8072;52.554;7.966;2023-02-28T04:09:12;1.20;99.90
15947;DHT22;8072;52.554;7.966;2023-02-28T04:11:42;1.10;99.90
15947;DHT22;8072;52.554;7.966;2023-02-28T04:14:09;1.10;99.90
15947;DHT22;8072;52.554;7.966;2023-02-28T04:16:37;1.10;99.90
15947;DHT22;8072;52.554;7.966;2023-02-28T04:19:04;1.00;99.90
15947;DHT22;8072;52.554;7.966;2023-02-28T04:21:39;1.00;99.90
15947;DHT22;8072;52.554;7.966;2023-02-28T04:24:06;1.00;99.90
15947;DHT22;8072;52.554;7.966;2023-02-28T04:26:34;0.90;99.90
15947;DHT22;8072;52.554;7.966;2023-02-28T04:29:01;0.90;99.90
15947;DHT22;8072;52.554;7.966;2023-02-28T04:31:27;0.90;99.90
15947;DHT22;8072;52.554;7.966;2023-02-28T04:33:53;0.90;99.90
15947;DHT22;8072;52.554;7.966;2023-02-28T04:36:19;0.90;99.90
15947;DHT22;8072;52.554;7.966;2023-02-28T04:38:46;0.90;99.90
15947;DHT22;8072;52.554;7.966;2023-02-28T04:41:12;0.90;99.90
15947;DHT22;8072;52.554;7.966;2023-02-28T04:43:38;0.90;99.90
15947;DHT22;8072;52.554;7.966;2023-02-28T04:46:05;0.90;99.90
15947;DHT22;8072;52.554;7.966;2023-02-28T04:48:34;0.90;99.90
15947;DHT22;8072;52.554;7.966;2023-02-28T04:51:08;0.90;99.90
15947;DHT22;8072;52.554;7.966;2023-02-28T04:53:35;0.80;99.90
15947;DHT22;8072;52.554;7.966;2023-02-28T04:56:01;0.90;99.90
15947;DHT22;8072;52.554;7.966;2023-02-28T04:58:27;0.90;99.90
15947;DHT22;8072;52.554;7.966;2023-02-28T05:00:53;0.90;99.90
15947;DHT22;8072;52.554;7.966;2023-02-28T05:03:20;0.80;99.90
15947;DHT22;8072;52.554;7.966;2023-02-28T05:05:47;0.90;99.90
15947;DHT22;8072;52.554;7.966;2023-02-28T05:08:13;0.90;99.90
15947;DHT22;8072;52.554;7.966;2023-02-28T05:10:39;0.90;99.90
15947;DHT22;8072;52.554;7.966;2023-02-28T05:13:05;0.80;99.90
15947;DHT22;8072;52.554;7.966;2023-02-28T05:15:31;0.90;99.90
15947;DHT22;8072;52.554;7.966;2023-02-28T05:17:57;0.90;99.90
15947;DHT22;8072;52.554;7.966;2023-02-28T05:20:22;0.90;99.90
15947;DHT22;8072;52.554;7.966;2023-02-28T05:22:49;0.90;99.90
15947;DHT22;8072;52.554;7.966;2023-02-28T05:25:20;0.80;99.90
15947;DHT22;8072;52.554;7.966;2023-02-28T05:27:49;0.80;99.90
15947;DHT22;8072;52.554;7.966;2023-02-28T05:30:15;0.80;99.90
15947;DHT22;8072;52.554;7.966;2023-02-28T05:32:41;0.70;99.90
15947;DHT22;8072;52.554;7.966;2023-02-28T05:35:11;0.70;99.90
15947;DHT22;8072;52.554;7.966;2023-02-28T05:37:37;0.70;99.90
15947;DHT22;8072;52.554;7.966;2023-02-28T05:40:04;0.60;99.90
15947;DHT22;8072;52.554;7.966;2023-02-28T05:42:32;0.60;99.90
15947;DHT22;8072;52.554;7.966;2023-02-28T05:44:58;0.60;99.90
15947;DHT22;8072;52.554;7.966;2023-02-28T05:47:24;0.60;99.90
15947;DHT22;8072;52.554;7.966;2023-02-28T05:49:50;0.50;99.90
15947;DHT22;8072;52.554;7.966;2023-02-28T05:52:16;0.50;99.90
15947;DHT22;8072;52.554;7.966;2023-02-28T05:54:42;0.50;99.90
15947;DHT22;8072;52.554;7.966;2023-02-28T05:57:08;0.50;99.90
15947;DHT22;8072;52.554;7.966;2023-02-28T05:59:34;0.40;99.90
15947;DHT22;8072;52.554;7.966;2023-02-28T06:02:00;0.40;99.90
15947;DHT22;8072;52.554;7.966;2023-02-28T06:04:25;0.40;99.90
15947;DHT22;8072;52.554;7.966;2023-02-28T06:06:51;0.40;99.90
15947;DHT22;8072;52.554;7.966;2023-02-28T06:09:18;0.30;99.90
15947;DHT22;8072;52.554;7.966;2023-02-28T06:11:44;0.40;99.90
15947;DHT22;8072;52.554;7.966;2023-02-28T06:14:15;0.30;99.90
15947;DHT22;8072;52.554;7.966;2023-02-28T06:16:41;0.30;99.90
15947;DHT22;8072;52.554;7.966;2023-02-28T06:19:08;0.30;99.90
15947;DHT22;8072;52.554;7.966;2023-02-28T06:21:34;0.30;99.90
15947;DHT22;8072;52.554;7.966;2023-02-28T06:24:00;0.30;99.90
15947;DHT22;8072;52.554;7.966;2023-02-28T06:26:26;0.40;99.90
15947;DHT22;8072;52.554;7.966;2023-02-28T06:28:52;0.40;99.90
15947;DHT22;8072;52.554;7.966;2023-02-28T06:31:18;0.40;99.90
15947;DHT22;8072;52.554;7.966;2023-02-28T06:33:45;0.30;99.90
15947;DHT22;8072;52.554;7.966;2023-02-28T06:36:12;0.40;99.90
15947;DHT22;8072;52.554;7.966;2023-02-28T06:38:38;0.30;99.90
15947;DHT22;8072;52.554;7.966;2023-02-28T06:41:05;0.40;99.90
15947;DHT22;8072;52.554;7.966;2023-02-28T06:43:34;0.30;99.90
15947;DHT22;8072;52.554;7.966;2023-02-28T06:46:02;0.40;99.90
15947;DHT22;8072;52.554;7.966;2023-02-28T06:48:28;0.40;99.90
15947;DHT22;8072;52.554;7.966;2023-02-28T06:51:09;0.30;99.90
15947;DHT22;8072;52.554;7.966;2023-02-28T06:53:35;0.30;99.90
15947;DHT22;8072;52.554;7.966;2023-02-28T06:56:12;0.30;99.90
15947;DHT22;8072;52.554;7.966;2023-02-28T06:58:38;0.30;99.90
15947;DHT22;8072;52.554;7.966;2023-02-28T07:01:05;0.40;99.90
15947;DHT22;8072;52.554;7.966;2023-02-28T07:03:32;0.30;99.90
15947;DHT22;8072;52.554;7.966;2023-02-28T07:05:58;0.40;99.90
15947;DHT22;8072;52.554;7.966;2023-02-28T07:08:24;0.40;99.90
15947;DHT22;8072;52.554;7.966;2023-02-28T07:10:54;0.40;99.90
15947;DHT22;8072;52.554;7.966;2023-02-28T07:13:20;0.50;99.90
15947;DHT22;8072;52.554;7.966;2023-02-28T07:15:55;0.50;99.90
15947;DHT22;8072;52.554;7.966;2023-02-28T07:18:21;0.50;99.90
15947;DHT22;8072;52.554;7.966;2023-02-28T07:20:47;0.50;99.90
15947;DHT22;8072;52.554;7.966;2023-02-28T07:23:12;0.50;99.90
15947;DHT22;8072;52.554;7.966;2023-02-28T07:25:38;0.50;99.90
15947;DHT22;8072;52.554;7.966;2023-02-28T07:28:05;0.60;99.90
15947;DHT22;8072;52.554;7.966;2023-02-28T07:30:32;0.60;99.90
15947;DHT22;8072;52.554;7.966;2023-02-28T07:32:57;0.60;99.90
15947;DHT22;8072;52.554;7.966;2023-02-28T07:35:23;0.60;99.90
15947;DHT22;8072;52.554;7.966;2023-02-28T07:37:49;0.70;99.90
15947;DHT22;8072;52.554;7.966;2023-02-28T07:40:15;0.70;99.90
15947;DHT22;8072;52.554;7.966;2023-02-28T07:42:43;0.70;99.90
15947;DHT22;8072;52.554;7.966;2023-02-28T07:45:10;0.80;99.90
15947;DHT22;8072;52.554;7.966;2023-02-28T07:47:41;0.80;99.90
15947;DHT22;8072;52.554;7.966;2023-02-28T07:50:11;0.80;99.90
15947;DHT22;8072;52.554;7.966;2023-02-28T07:52:37;0.80;99.90
15947;DHT22;8072;52.554;7.966;2023-02-28T07:55:05;0.90;99.90
15947;DHT22;8072;52.554;7.966;2023-02-28T07:57:31;1.00;99.90
15947;DHT22;8072;52.554;7.966;2023-02-28T07:59:57;1.00;99.90
15947;DHT22;8072;52.554;7.966;2023-02-28T08:02:23;1.10;99.90
15947;DHT22;8072;52.554;7.966;2023-02-28T08:04:49;1.10;99.90
15947;DHT22;8072;52.554;7.966;2023-02-28T08:07:16;1.20;99.90
15947;DHT22;8072;52.554;7.966;2023-02-28T08:09:43;1.30;99.90
15947;DHT22;8072;52.554;7.966;2023-02-28T08:12:10;1.40;99.90
15947;DHT22;8072;52.554;7.966;2023-02-28T08:14:37;1.50;99.90
15947;DHT22;8072;52.554;7.966;2023-02-28T08:17:04;1.60;99.90
15947;DHT22;8072;52.554;7.966;2023-02-28T08:19:29;1.70;99.90
15947;DHT22;8072;52.554;7.966;2023-02-28T08:21:56;1.70;99.90
15947;DHT22;8072;52.554;7.966;2023-02-28T08:24:22;1.80;99.90
15947;DHT22;8072;52.554;7.966;2023-02-28T08:26:49;1.90;99.90
15947;DHT22;8072;52.554;7.966;2023-02-28T08:29:15;2.00;99.90
15947;DHT22;8072;52.554;7.966;2023-02-28T08:31:41;2.10;99.90
15947;DHT22;8072;52.554;7.966;2023-02-28T08:34:14;2.10;99.90
15947;DHT22;8072;52.554;7.966;2023-02-28T08:36:40;2.20;99.90
15947;DHT22;8072;52.554;7.966;2023-02-28T08:39:07;2.20;99.90
15947;DHT22;8072;52.554;7.966;2023-02-28T08:41:33;2.30;99.90
15947;DHT22;8072;52.554;7.966;2023-02-28T08:43:59;2.40;99.90
15947;DHT22;8072;52.554;7.966;2023-02-28T08:46:25;2.40;99.90
15947;DHT22;8072;52.554;7.966;2023-02-28T08:48:53;2.40;99.90
15947;DHT22;8072;52.554;7.966;2023-02-28T08:51:19;2.50;99.90
15947;DHT22;8072;52.554;7.966;2023-02-28T08:53:56;2.50;99.90
15947;DHT22;8072;52.554;7.966;2023-02-28T08:56:23;2.60;99.90
15947;DHT22;8072;52.554;7.966;2023-02-28T08:58:50;2.60;99.90
15947;DHT22;8072;52.554;7.966;2023-02-28T09:01:22;2.70;99.90
15947;DHT22;8072;52.554;7.966;2023-02-28T09:03:50;2.70;99.90
15947;DHT22;8072;52.554;7.966;2023-02-28T09:06:17;2.80;99.90
15947;DHT22;8072;52.554;7.966;2023-02-28T09:08:44;2.80;99.90
15947;DHT22;8072;52.554;7.966;2023-02-28T09:11:10;2.90;99.90
15947;DHT22;8072;52.554;7.966;2023-02-28T09:13:36;2.90;99.90
15947;DHT22;8072;52.554;7.966;2023-02-28T09:16:04;3.00;99.90
15947;DHT22;8072;52.554;7.966;2023-02-28T09:18:30;3.00;99.90
15947;DHT22;8072;52.554;7.966;2023-02-28T09:20:57;3.10;99.90
15947;DHT22;8072;52.554;7.966;2023-02-28T09:23:24;3.20;99.90
15947;DHT22;8072;52.554;7.966;2023-02-28T09:25:52;3.20;99.90
15947;DHT22;8072;52.554;7.966;2023-02-28T09:28:18;3.30;99.90
15947;DHT22;8072;52.554;7.966;2023-02-28T09:30:47;3.40;99.90
15947;DHT22;8072;52.554;7.966;2023-02-28T09:33:13;3.50;99.90
15947;DHT22;8072;52.554;7.966;2023-02-28T09:35:39;3.50;99.90
15947;DHT22;8072;52.554;7.966;2023-02-28T09:38:05;3.60;99.90
15947;DHT22;8072;52.554;7.966;2023-02-28T09:40:36;3.70;99.90
15947;DHT22;8072;52.554;7.966;2023-02-28T09:43:03;3.80;99.90
15947;DHT22;8072;52.554;7.966;2023-02-28T09:45:36;3.90;99.90
15947;DHT22;8072;52.554;7.966;2023-02-28T09:48:14;4.00;99.90
15947;DHT22;8072;52.554;7.966;2023-02-28T09:50:48;4.00;99.90
15947;DHT22;8072;52.554;7.966;2023-02-28T09:53:36;4.10;99.90
15947;DHT22;8072;52.554;7.966;2023-02-28T09:56:07;4.20;99.90
15947;DHT22;8072;52.554;7.966;2023-02-28T09:58:40;4.20;99.90
15947;DHT22;8072;52.554;7.966;2023-02-28T10:01:37;4.20;99.90
15947;DHT22;8072;52.554;7.966;2023-02-28T10:07:04;4.40;99.90
15947;DHT22;8072;52.554;7.966;2023-02-28T10:09:33;4.50;99.90
15947;DHT22;8072;52.554;7.966;2023-02-28T10:12:04;4.50;99.90
15947;DHT22;8072;52.554;7.966;2023-02-28T10:14:33;4.50;99.90
15947;DHT22;8072;52.554;7.966;2023-02-28T10:17:12;4.60;99.90
15947;DHT22;8072;52.554;7.966;2023-02-28T10:22:22;4.80;99.90
15947;DHT22;8072;52.554;7.966;2023-02-28T10:24:51;4.90;99.90
15947;DHT22;8072;52.554;7.966;2023-02-28T10:27:35;5.00;99.90
15947;DHT22;8072;52.554;7.966;2023-02-28T10:30:02;5.10;99.90
15947;DHT22;8072;52.554;7.966;2023-02-28T10:32:35;5.20;99.90
15947;DHT22;8072;52.554;7.966;2023-02-28T10:35:20;5.40;99.90
15947;DHT22;8072;52.554;7.966;2023-02-28T10:37:49;5.50;99.90
15947;DHT22;8072;52.554;7.966;2023-02-28T10:45:36;5.80;99.90
15947;DHT22;8072;52.554;7.966;2023-02-28T10:48:47;5.90;99.90
15947;DHT22;8072;52.554;7.966;2023-02-28T10:51:15;5.90;99.90
15947;DHT22;8072;52.554;7.966;2023-02-28T10:53:50;6.00;99.90
15947;DHT22;8072;52.554;7.966;2023-02-28T10:56:18;6.10;99.90
15947;DHT22;8072;52.554;7.966;2023-02-28T11:06:57;6.50;99.90
15947;DHT22;8072;52.554;7.966;2023-02-28T11:09:34;6.50;99.90
15947;DHT22;8072;52.554;7.966;2023-02-28T11:12:02;6.50;99.90
15947;DHT22;8072;52.554;7.966;2023-02-28T11:14:32;6.50;99.90
15947;DHT22;8072;52.554;7.966;2023-02-28T11:17:23;6.60;99.90
15947;DHT22;8072;52.554;7.966;2023-02-28T11:19:52;6.70;99.90
15947;DHT22;8072;52.554;7.966;2023-02-28T11:22:20;6.80;99.90
15947;DHT22;8072;52.554;7.966;2023-02-28T11:24:53;6.90;99.90
15947;DHT22;8072;52.554;7.966;2023-02-28T11:29:56;7.20;99.90
15947;DHT22;8072;52.554;7.966;2023-02-28T11:32:23;7.30;99.90
15947;DHT22;8072;52.554;7.966;2023-02-28T11:35:17;7.40;99.90
15947;DHT22;8072;52.554;7.966;2023-02-28T11:37:45;7.50;99.90
15947;DHT22;8072;52.554;7.966;2023-02-28T11:40:17;7.60;99.90
15947;DHT22;8072;52.554;7.966;2023-02-28T11:42:55;7.70;99.90
15947;DHT22;8072;52.554;7.966;2023-02-28T11:48:15;8.00;99.90
15947;DHT22;8072;52.554;7.966;2023-02-28T11:51:03;8.00;99.90
15947;DHT22;8072;52.554;7.966;2023-02-28T11:53:51;8.30;99.90
15947;DHT22;8072;52.554;7.966;2023-02-28T12:07:31;8.80;99.90
15947;DHT22;8072;52.554;7.966;2023-02-28T12:10:16;8.90;99.90
15947;DHT22;8072;52.554;7.966;2023-02-28T12:26:55;9.50;99.90
15947;DHT22;8072;52.554;7.966;2023-02-28T12:29:29;9.70;99.90
15947;DHT22;8072;52.554;7.966;2023-02-28T12:32:06;9.90;99.90
15947;DHT22;8072;52.554;7.966;2023-02-28T12:37:37;9.60;99.90
15947;DHT22;8072;52.554;7.966;2023-02-28T12:40:28;9.80;99.90
15947;DHT22;8072;52.554;7.966;2023-02-28T12:43:02;10.00;99.90
15947;DHT22;8072;52.554;7.966;2023-02-28T12:45:50;10.10;99.90
15947;DHT22;8072;52.554;7.966;2023-02-28T12:48:37;10.00;99.90
15947;DHT22;8072;52.554;7.966;2023-02-28T12:51:06;10.10;99.90
15947;DHT22;8072;52.554;7.966;2023-02-28T12:54:04;10.10;99.90
15947;DHT22;8072;52.554;7.966;2023-02-28T13:08:23;10.30;99.90
15947;DHT22;8072;52.554;7.966;2023-02-28T13:10:53;10.40;99.90
15947;DHT22;8072;52.554;7.966;2023-02-28T13:13:27;10.10;99.90
15947;DHT22;8072;52.554;7.966;2023-02-28T13:18:42;10.20;99.90
15947;DHT22;8072;52.554;7.966;2023-02-28T13:29:04;10.70;99.90
15947;DHT22;8072;52.554;7.966;2023-02-28T13:34:46;11.30;99.90
15947;DHT22;8072;52.554;7.966;2023-02-28T13:47:56;11.30;99.90
15947;DHT22;8072;52.554;7.966;2023-02-28T14:01:25;11.30;99.90
15947;DHT22;8072;52.554;7.966;2023-02-28T14:06:38;11.20;99.90
15947;DHT22;8072;52.554;7.966;2023-02-28T14:11:46;11.10;99.90
15947;DHT22;8072;52.554;7.966;2023-02-28T14:17:01;10.70;99.90
15947;DHT22;8072;52.554;7.966;2023-02-28T14:19:30;10.60;99.90
15947;DHT22;8072;52.554;7.966;2023-02-28T14:25:23;10.60;99.90
15947;DHT22;8072;52.554;7.966;2023-02-28T14:38:57;10.40;99.90
15947;DHT22;8072;52.554;7.966;2023-02-28T14:41:39;10.40;99.90
15947;DHT22;8072;52.554;7.966;2023-02-28T14:44:25;10.50;99.90
15947;DHT22;8072;52.554;7.966;2023-02-28T14:46:56;10.50;99.90
15947;DHT22;8072;52.554;7.966;2023-02-28T14:49:43;10.60;99.90
15947;DHT22;8072;52.554;7.966;2023-02-28T14:52:28;10.40;99.90
15947;DHT22;8072;52.554;7.966;2023-02-28T14:55:06;10.30;99.90
15947;DHT22;8072;52.554;7.966;2023-02-28T14:57:39;10.20;99.90
15947;DHT22;8072;52.554;7.966;2023-02-28T15:00:16;10.20;99.90
15947;DHT22;8072;52.554;7.966;2023-02-28T15:02:43;10.00;99.90
15947;DHT22;8072;52.554;7.966;2023-02-28T15:07:47;9.80;99.90
15947;DHT22;8072;52.554;7.966;2023-02-28T15:10:23;9.70;99.90
15947;DHT22;8072;52.554;7.966;2023-02-28T15:13:01;9.80;99.90
15947;DHT22;8072;52.554;7.966;2023-02-28T15:18:25;10.00;99.90
15947;DHT22;8072;52.554;7.966;2023-02-28T15:20:55;10.20;99.90
15947;DHT22;8072;52.554;7.966;2023-02-28T15:23:21;10.20;99.90
15947;DHT22;8072;52.554;7.966;2023-02-28T15:25:48;10.30;99.90
15947;DHT22;8072;52.554;7.966;2023-02-28T15:28:20;10.20;99.90
15947;DHT22;8072;52.554;7.966;2023-02-28T15:30:56;10.20;99.90
15947;DHT22;8072;52.554;7.966;2023-02-28T15:33:25;10.10;99.90
15947;DHT22;8072;52.554;7.966;2023-02-28T15:35:51;10.00;99.90
15947;DHT22;8072;52.554;7.966;2023-02-28T15:38:28;9.80;99.90
15947;DHT22;8072;52.554;7.966;2023-02-28T15:40:57;9.60;99.90
15947;DHT22;8072;52.554;7.966;2023-02-28T15:46:13;9.10;99.90
15947;DHT22;8072;52.554;7.966;2023-02-28T15:48:55;8.90;99.90
15947;DHT22;8072;52.554;7.966;2023-02-28T15:51:35;8.70;99.90
15947;DHT22;8072;52.554;7.966;2023-02-28T15:54:08;8.50;99.90
15947;DHT22;8072;52.554;7.966;2023-02-28T15:56:46;8.20;99.90
15947;DHT22;8072;52.554;7.966;2023-02-28T15:59:21;8.10;99.90
15947;DHT22;8072;52.554;7.966;2023-02-28T16:04:58;7.80;99.90
15947;DHT22;8072;52.554;7.966;2023-02-28T16:07:24;7.70;99.90
15947;DHT22;8072;52.554;7.966;2023-02-28T16:09:51;7.60;99.90
15947;DHT22;8072;52.554;7.966;2023-02-28T16:12:24;7.50;99.90
15947;DHT22;8072;52.554;7.966;2023-02-28T16:14:52;7.40;99.90
15947;DHT22;8072;52.554;7.966;2023-02-28T16:17:22;7.30;99.90
15947;DHT22;8072;52.554;7.966;2023-02-28T16:19:48;7.20;99.90
15947;DHT22;8072;52.554;7.966;2023-02-28T16:22:14;7.10;99.90
15947;DHT22;8072;52.554;7.966;2023-02-28T16:24:40;7.00;99.90
15947;DHT22;8072;52.554;7.966;2023-02-28T16:27:07;6.90;99.90
15947;DHT22;8072;52.554;7.966;2023-02-28T16:29:40;6.80;99.90
15947;DHT22;8072;52.554;7.966;2023-02-28T16:32:07;6.70;99.90
15947;DHT22;8072;52.554;7.966;2023-02-28T16:34:33;6.70;99.90
15947;DHT22;8072;52.554;7.966;2023-02-28T16:36:59;6.70;99.90
15947;DHT22;8072;52.554;7.966;2023-02-28T16:39:25;6.70;99.90
15947;DHT22;8072;52.554;7.966;2023-02-28T16:41:51;6.70;99.90
15947;DHT22;8072;52.554;7.966;2023-02-28T16:44:33;6.60;99.90
15947;DHT22;8072;52.554;7.966;2023-02-28T16:47:01;6.50;99.90
15947;DHT22;8072;52.554;7.966;2023-02-28T16:49:27;6.50;99.90
15947;DHT22;8072;52.554;7.966;2023-02-28T16:51:53;6.50;99.90
15947;DHT22;8072;52.554;7.966;2023-02-28T16:54:19;6.50;99.90
15947;DHT22;8072;52.554;7.966;2023-02-28T16:56:47;6.40;99.90
15947;DHT22;8072;52.554;7.966;2023-02-28T16:59:17;6.30;99.90
15947;DHT22;8072;52.554;7.966;2023-02-28T17:01:44;6.30;99.90
15947;DHT22;8072;52.554;7.966;2023-02-28T17:04:11;6.30;99.90
15947;DHT22;8072;52.554;7.966;2023-02-28T17:06:37;6.30;99.90
15947;DHT22;8072;52.554;7.966;2023-02-28T17:09:03;6.20;99.90
15947;DHT22;8072;52.554;7.966;2023-02-28T17:11:29;6.20;99.90
15947;DHT22;8072;52.554;7.966;2023-02-28T17:13:55;6.20;99.90
15947;DHT22;8072;52.554;7.966;2023-02-28T17:16:35;6.20;99.90
15947;DHT22;8072;52.554;7.966;2023-02-28T17:19:05;6.10;99.90
15947;DHT22;8072;52.554;7.966;2023-02-28T17:21:32;6.10;99.90
15947;DHT22;8072;52.554;7.966;2023-02-28T17:23:58;6.00;99.90
15947;DHT22;8072;52.554;7.966;2023-02-28T17:26:25;6.00;99.90
15947;DHT22;8072;52.554;7.966;2023-02-28T17:28:52;6.00;99.90
15947;DHT22;8072;52.554;7.966;2023-02-28T17:31:21;5.90;99.90
15947;DHT22;8072;52.554;7.966;2023-02-28T17:33:47;5.90;99.90
15947;DHT22;8072;52.554;7.966;2023-02-28T17:36:21;5.80;99.90
15947;DHT22;8072;52.554;7.966;2023-02-28T17:38:48;5.80;99.90
15947;DHT22;8072;52.554;7.966;2023-02-28T17:41:14;5.80;99.90
15947;DHT22;8072;52.554;7.966;2023-02-28T17:43:40;5.70;99.90
15947;DHT22;8072;52.554;7.966;2023-02-28T17:46:17;5.70;99.90
15947;DHT22;8072;52.554;7.966;2023-02-28T17:48:49;5.60;99.90
15947;DHT22;8072;52.554;7.966;2023-02-28T17:51:16;5.60;99.90
15947;DHT22;8072;52.554;7.966;2023-02-28T17:53:42;5.50;99.90
15947;DHT22;8072;52.554;7.966;2023-02-28T17:56:13;5.50;99.90
15947;DHT22;8072;52.554;7.966;2023-02-28T17:58:40;5.40;99.90
15947;DHT22;8072;52.554;7.966;2023-02-28T18:01:06;5.30;99.90
15947;DHT22;8072;52.554;7.966;2023-02-28T18:03:33;5.20;99.90
15947;DHT22;8072;52.554;7.966;2023-02-28T18:05:59;5.10;99.90
15947;DHT22;8072;52.554;7.966;2023-02-28T18:08:25;5.00;99.90
15947;DHT22;8072;52.554;7.966;2023-02-28T18:10:52;4.90;99.90
15947;DHT22;8072;52.554;7.966;2023-02-28T18:13:17;4.90;99.90
15947;DHT22;8072;52.554;7.966;2023-02-28T18:15:43;4.80;99.90
15947;DHT22;8072;52.554;7.966;2023-02-28T18:18:09;4.80;99.90
15947;DHT22;8072;52.554;7.966;2023-02-28T18:20:35;4.70;99.90
15947;DHT22;8072;52.554;7.966;2023-02-28T18:23:01;4.70;99.90
15947;DHT22;8072;52.554;7.966;2023-02-28T18:25:27;4.60;99.90
15947;DHT22;8072;52.554;7.966;2023-02-28T18:27:53;4.50;99.90
15947;DHT22;8072;52.554;7.966;2023-02-28T18:30:27;4.40;99.90
15947;DHT22;8072;52.554;7.966;2023-02-28T18:32:57;4.40;99.90
15947;DHT22;8072;52.554;7.966;2023-02-28T18:35:23;4.30;99.90
15947;DHT22;8072;52.554;7.966;2023-02-28T18:38:06;4.20;99.90
15947;DHT22;8072;52.554;7.966;2023-02-28T18:40:32;4.10;99.90
15947;DHT22;8072;52.554;7.966;2023-02-28T18:42:58;4.00;99.90
15947;DHT22;8072;52.554;7.966;2023-02-28T18:45:26;3.90;99.90
15947;DHT22;8072;52.554;7.966;2023-02-28T18:47:51;3.80;99.90
15947;DHT22;8072;52.554;7.966;2023-02-28T18:50:17;3.80;99.90
15947;DHT22;8072;52.554;7.966;2023-02-28T18:52:44;3.70;99.90
15947;DHT22;8072;52.554;7.966;2023-02-28T18:55:10;3.70;99.90
15947;DHT22;8072;52.554;7.966;2023-02-28T18:57:39;3.60;99.90
15947;DHT22;8072;52.554;7.966;2023-02-28T19:00:05;3.50;99.90
15947;DHT22;8072;52.554;7.966;2023-02-28T19:02:31;3.50;99.90
15947;DHT22;8072;52.554;7.966;2023-02-28T19:04:57;3.40;99.90
15947;DHT22;8072;52.554;7.966;2023-02-28T19:07:23;3.30;99.90
15947;DHT22;8072;52.554;7.966;2023-02-28T19:09:49;3.30;99.90
15947;DHT22;8072;52.554;7.966;2023-02-28T19:12:14;3.30;99.90
15947;DHT22;8072;52.554;7.966;2023-02-28T19:14:41;3.30;99.90
15947;DHT22;8072;52.554;7.966;2023-02-28T19:17:07;3.20;99.90
15947;DHT22;8072;52.554;7.966;2023-02-28T19:19:33;3.20;99.90